sensor_id;sensor_type;location;lat;lon;timestamp;pressure;altitude;pressure_sealevel;temperature
5571;BMP180;2808;51.240;6.794;2023-07-28T00:02:20;100105.00;;;17.80
5571;BMP180;2808;51.240;6.794;2023-07-28T00:04:47;100098.00;;;17.80
5571;BMP180;2808;51.240;6.794;2023-07-28T00:07:15;100105.00;;;17.80
5571;BMP180;2808;51.240;6.794;2023-07-28T00:09:43;100101.00;;;17.80
5571;BMP180;2808;51.240;6.794;2023-07-28T00:12:10;100099.00;;;17.80
5571;BMP180;2808;51.240;6.794;2023-07-28T00:14:39;100100.00;;;17.80
5571;BMP180;2808;51.240;6.794;2023-07-28T00:17:06;100103.00;;;17.80
5571;BMP180;2808;51.240;6.794;2023-07-28T00:19:34;100096.00;;;17.80
5571;BMP180;2808;51.240;6.794;2023-07-28T00:22:01;100097.00;;;17.80
5571;BMP180;2808;51.240;6.794;2023-07-28T00:24:29;100099.00;;;17.80
5571;BMP180;2808;51.240;6.794;2023-07-28T00:26:56;100093.00;;;17.80
5571;BMP180;2808;51.240;6.794;2023-07-28T00:29:24;100097.00;;;17.80
5571;BMP180;2808;51.240;6.794;2023-07-28T00:31:52;100092.00;;;17.80
5571;BMP180;2808;51.240;6.794;2023-07-28T00:34:21;100089.00;;;17.80
5571;BMP180;2808;51.240;6.794;2023-07-28T00:36:48;100089.00;;;17.80
5571;BMP180;2808;51.240;6.794;2023-07-28T00:39:16;100089.00;;;17.80
5571;BMP180;2808;51.240;6.794;2023-07-28T00:41:45;100082.00;;;17.80
5571;BMP180;2808;51.240;6.794;2023-07-28T00:44:12;100083.00;;;17.80
5571;BMP180;2808;51.240;6.794;2023-07-28T00:46:41;100084.00;;;17.80
5571;BMP180;2808;51.240;6.794;2023-07-28T00:49:12;100083.00;;;17.80
5571;BMP180;2808;51.240;6.794;2023-07-28T00:51:42;100085.00;;;17.80
5571;BMP180;2808;51.240;6.794;2023-07-28T00:54:10;100094.00;;;17.80
5571;BMP180;2808;51.240;6.794;2023-07-28T00:56:38;100089.00;;;17.70
5571;BMP180;2808;51.240;6.794;2023-07-28T00:59:05;100086.00;;;17.70
5571;BMP180;2808;51.240;6.794;2023-07-28T01:01:32;100092.00;;;17.80
5571;BMP180;2808;51.240;6.794;2023-07-28T01:04:00;100083.00;;;17.70
5571;BMP180;2808;51.240;6.794;2023-07-28T01:06:35;100088.00;;;17.70
5571;BMP180;2808;51.240;6.794;2023-07-28T01:09:06;100094.00;;;17.80
5571;BMP180;2808;51.240;6.794;2023-07-28T01:11:36;100092.00;;;17.80
5571;BMP180;2808;51.240;6.794;2023-07-28T01:14:04;100090.00;;;17.80
5571;BMP180;2808;51.240;6.794;2023-07-28T01:16:31;100094.00;;;17.80
5571;BMP180;2808;51.240;6.794;2023-07-28T01:18:59;100092.00;;;17.80
5571;BMP180;2808;51.240;6.794;2023-07-28T01:21:30;100092.00;;;17.80
5571;BMP180;2808;51.240;6.794;2023-07-28T01:24:05;100089.00;;;17.80
5571;BMP180;2808;51.240;6.794;2023-07-28T01:26:35;100089.00;;;17.80
5571;BMP180;2808;51.240;6.794;2023-07-28T01:29:03;100082.00;;;17.80
5571;BMP180;2808;51.240;6.794;2023-07-28T01:31:32;100086.00;;;17.80
5571;BMP180;2808;51.240;6.794;2023-07-28T01:33:59;100086.00;;;17.80
5571;BMP180;2808;51.240;6.794;2023-07-28T01:36:27;100087.00;;;17.80
5571;BMP180;2808;51.240;6.794;2023-07-28T01:38:54;100085.00;;;17.80
5571;BMP180;2808;51.240;6.794;2023-07-28T01:41:22;100087.00;;;17.80
5571;BMP180;2808;51.240;6.794;2023-07-28T01:43:51;100089.00;;;17.70
5571;BMP180;2808;51.240;6.794;2023-07-28T01:46:21;100084.00;;;17.80
5571;BMP180;2808;51.240;6.794;2023-07-28T01:48:49;100089.00;;;17.70
5571;BMP180;2808;51.240;6.794;2023-07-28T01:51:16;100088.00;;;17.70
5571;BMP180;2808;51.240;6.794;2023-07-28T01:53:43;100088.00;;;17.70
5571;BMP180;2808;51.240;6.794;2023-07-28T01:56:11;100081.00;;;17.70
5571;BMP180;2808;51.240;6.794;2023-07-28T01:58:38;100081.00;;;17.70
5571;BMP180;2808;51.240;6.794;2023-07-28T02:01:07;100084.00;;;17.70
5571;BMP180;2808;51.240;6.794;2023-07-28T02:03:35;100083.00;;;17.80
5571;BMP180;2808;51.240;6.794;2023-07-28T02:06:02;100079.00;;;17.70
5571;BMP180;2808;51.240;6.794;2023-07-28T02:08:30;100084.00;;;17.70
5571;BMP180;2808;51.240;6.794;2023-07-28T02:10:57;100079.00;;;17.70
5571;BMP180;2808;51.240;6.794;2023-07-28T02:13:24;100084.00;;;17.70
5571;BMP180;2808;51.240;6.794;2023-07-28T02:15:52;100081.00;;;17.70
5571;BMP180;2808;51.240;6.794;2023-07-28T02:18:21;100085.00;;;17.70
5571;BMP180;2808;51.240;6.794;2023-07-28T02:20:49;100089.00;;;17.70
5571;BMP180;2808;51.240;6.794;2023-07-28T02:23:16;100085.00;;;17.70
5571;BMP180;2808;51.240;6.794;2023-07-28T02:25:44;100095.00;;;17.70
5571;BMP180;2808;51.240;6.794;2023-07-28T02:28:11;100094.00;;;17.70
5571;BMP180;2808;51.240;6.794;2023-07-28T02:30:39;100095.00;;;17.70
5571;BMP180;2808;51.240;6.794;2023-07-28T02:33:06;100095.00;;;17.70
5571;BMP180;2808;51.240;6.794;2023-07-28T02:35:35;100095.00;;;17.70
5571;BMP180;2808;51.240;6.794;2023-07-28T02:38:03;100097.00;;;17.70
5571;BMP180;2808;51.240;6.794;2023-07-28T02:40:31;100097.00;;;17.70
5571;BMP180;2808;51.240;6.794;2023-07-28T02:42:59;100100.00;;;17.70
5571;BMP180;2808;51.240;6.794;2023-07-28T02:45:26;100097.00;;;17.70
5571;BMP180;2808;51.240;6.794;2023-07-28T02:47:54;100101.00;;;17.70
5571;BMP180;2808;51.240;6.794;2023-07-28T02:50:21;100100.00;;;17.60
5571;BMP180;2808;51.240;6.794;2023-07-28T02:52:50;100095.00;;;17.60
5571;BMP180;2808;51.240;6.794;2023-07-28T02:55:18;100098.00;;;17.60
5571;BMP180;2808;51.240;6.794;2023-07-28T02:57:48;100106.00;;;17.60
5571;BMP180;2808;51.240;6.794;2023-07-28T03:00:15;100107.00;;;17.60
5571;BMP180;2808;51.240;6.794;2023-07-28T03:02:43;100107.00;;;17.60
5571;BMP180;2808;51.240;6.794;2023-07-28T03:05:13;100101.00;;;17.60
5571;BMP180;2808;51.240;6.794;2023-07-28T03:07:41;100106.00;;;17.60
5571;BMP180;2808;51.240;6.794;2023-07-28T03:10:10;100106.00;;;17.60
5571;BMP180;2808;51.240;6.794;2023-07-28T03:12:42;100111.00;;;17.70
5571;BMP180;2808;51.240;6.794;2023-07-28T03:15:10;100114.00;;;17.70
5571;BMP180;2808;51.240;6.794;2023-07-28T03:17:37;100111.00;;;17.70
5571;BMP180;2808;51.240;6.794;2023-07-28T03:20:05;100101.00;;;17.70
5571;BMP180;2808;51.240;6.794;2023-07-28T03:22:33;100113.00;;;17.70
5571;BMP180;2808;51.240;6.794;2023-07-28T03:25:00;100113.00;;;17.70
5571;BMP180;2808;51.240;6.794;2023-07-28T03:27:30;100112.00;;;17.70
5571;BMP180;2808;51.240;6.794;2023-07-28T03:29:58;100101.00;;;17.70
5571;BMP180;2808;51.240;6.794;2023-07-28T03:32:25;100112.00;;;17.70
5571;BMP180;2808;51.240;6.794;2023-07-28T03:34:53;100109.00;;;17.70
5571;BMP180;2808;51.240;6.794;2023-07-28T03:37:20;100116.00;;;17.70
5571;BMP180;2808;51.240;6.794;2023-07-28T03:39:48;100114.00;;;17.70
5571;BMP180;2808;51.240;6.794;2023-07-28T03:42:15;100110.00;;;17.70
5571;BMP180;2808;51.240;6.794;2023-07-28T03:44:44;100113.00;;;17.70
5571;BMP180;2808;51.240;6.794;2023-07-28T03:47:12;100116.00;;;17.70
5571;BMP180;2808;51.240;6.794;2023-07-28T03:49:39;100119.00;;;17.70
5571;BMP180;2808;51.240;6.794;2023-07-28T03:52:07;100120.00;;;17.70
5571;BMP180;2808;51.240;6.794;2023-07-28T03:54:34;100121.00;;;17.70
5571;BMP180;2808;51.240;6.794;2023-07-28T03:57:05;100127.00;;;17.70
5571;BMP180;2808;51.240;6.794;2023-07-28T03:59:33;100126.00;;;17.80
5571;BMP180;2808;51.240;6.794;2023-07-28T04:02:02;100133.00;;;17.70
5571;BMP180;2808;51.240;6.794;2023-07-28T04:04:29;100125.00;;;17.70
5571;BMP180;2808;51.240;6.794;2023-07-28T04:06:57;100124.00;;;17.70
5571;BMP180;2808;51.240;6.794;2023-07-28T04:09:24;100116.00;;;17.70
5571;BMP180;2808;51.240;6.794;2023-07-28T04:11:51;100114.00;;;17.70
5571;BMP180;2808;51.240;6.794;2023-07-28T04:14:19;100115.00;;;17.70
5571;BMP180;2808;51.240;6.794;2023-07-28T04:16:47;100120.00;;;17.80
5571;BMP180;2808;51.240;6.794;2023-07-28T04:19:15;100118.00;;;17.80
5571;BMP180;2808;51.240;6.794;2023-07-28T04:21:43;100117.00;;;17.80
5571;BMP180;2808;51.240;6.794;2023-07-28T04:24:11;100122.00;;;17.80
5571;BMP180;2808;51.240;6.794;2023-07-28T04:26:38;100123.00;;;17.80
5571;BMP180;2808;51.240;6.794;2023-07-28T04:29:06;100116.00;;;17.80
5571;BMP180;2808;51.240;6.794;2023-07-28T04:31:35;100120.00;;;17.80
5571;BMP180;2808;51.240;6.794;2023-07-28T04:34:03;100126.00;;;17.90
5571;BMP180;2808;51.240;6.794;2023-07-28T04:36:32;100125.00;;;17.90
5571;BMP180;2808;51.240;6.794;2023-07-28T04:38:59;100124.00;;;17.90
5571;BMP180;2808;51.240;6.794;2023-07-28T04:41:27;100122.00;;;18.00
5571;BMP180;2808;51.240;6.794;2023-07-28T04:43:54;100124.00;;;17.90
5571;BMP180;2808;51.240;6.794;2023-07-28T04:46:24;100117.00;;;18.00
5571;BMP180;2808;51.240;6.794;2023-07-28T04:48:53;100133.00;;;18.00
5571;BMP180;2808;51.240;6.794;2023-07-28T04:51:20;100126.00;;;18.00
5571;BMP180;2808;51.240;6.794;2023-07-28T04:53:49;100132.00;;;18.10
5571;BMP180;2808;51.240;6.794;2023-07-28T04:56:16;100130.00;;;18.10
5571;BMP180;2808;51.240;6.794;2023-07-28T04:58:44;100146.00;;;18.10
5571;BMP180;2808;51.240;6.794;2023-07-28T05:01:11;100140.00;;;18.10
5571;BMP180;2808;51.240;6.794;2023-07-28T05:03:42;100131.00;;;18.20
5571;BMP180;2808;51.240;6.794;2023-07-28T05:06:09;100139.00;;;18.20
5571;BMP180;2808;51.240;6.794;2023-07-28T05:08:37;100138.00;;;18.20
5571;BMP180;2808;51.240;6.794;2023-07-28T05:11:06;100143.00;;;18.30
5571;BMP180;2808;51.240;6.794;2023-07-28T05:13:33;100139.00;;;18.30
5571;BMP180;2808;51.240;6.794;2023-07-28T05:16:01;100134.00;;;18.30
5571;BMP180;2808;51.240;6.794;2023-07-28T05:18:28;100140.00;;;18.40
5571;BMP180;2808;51.240;6.794;2023-07-28T05:20:55;100148.00;;;18.40
5571;BMP180;2808;51.240;6.794;2023-07-28T05:23:26;100153.00;;;18.40
5571;BMP180;2808;51.240;6.794;2023-07-28T05:25:54;100147.00;;;18.40
5571;BMP180;2808;51.240;6.794;2023-07-28T05:28:23;100147.00;;;18.40
5571;BMP180;2808;51.240;6.794;2023-07-28T05:30:50;100149.00;;;18.40
5571;BMP180;2808;51.240;6.794;2023-07-28T05:33:18;100159.00;;;18.40
5571;BMP180;2808;51.240;6.794;2023-07-28T05:35:45;100160.00;;;18.40
5571;BMP180;2808;51.240;6.794;2023-07-28T05:38:13;100164.00;;;18.40
5571;BMP180;2808;51.240;6.794;2023-07-28T05:41:30;100166.00;;;18.50
5571;BMP180;2808;51.240;6.794;2023-07-28T05:43:59;100180.00;;;18.60
5571;BMP180;2808;51.240;6.794;2023-07-28T05:46:27;100177.00;;;18.60
5571;BMP180;2808;51.240;6.794;2023-07-28T05:48:55;100183.00;;;18.60
5571;BMP180;2808;51.240;6.794;2023-07-28T05:51:23;100185.00;;;18.50
5571;BMP180;2808;51.240;6.794;2023-07-28T05:53:50;100177.00;;;18.50
5571;BMP180;2808;51.240;6.794;2023-07-28T05:56:18;100180.00;;;18.50
5571;BMP180;2808;51.240;6.794;2023-07-28T05:58:45;100177.00;;;18.60
5571;BMP180;2808;51.240;6.794;2023-07-28T06:01:14;100187.00;;;18.60
5571;BMP180;2808;51.240;6.794;2023-07-28T06:03:42;100176.00;;;18.60
5571;BMP180;2808;51.240;6.794;2023-07-28T06:06:09;100185.00;;;18.60
5571;BMP180;2808;51.240;6.794;2023-07-28T06:08:37;100192.00;;;18.70
5571;BMP180;2808;51.240;6.794;2023-07-28T06:11:04;100191.00;;;18.70
5571;BMP180;2808;51.240;6.794;2023-07-28T06:13:32;100194.00;;;18.70
5571;BMP180;2808;51.240;6.794;2023-07-28T06:16:00;100192.00;;;18.70
5571;BMP180;2808;51.240;6.794;2023-07-28T06:18:29;100193.00;;;18.70
5571;BMP180;2808;51.240;6.794;2023-07-28T06:20:56;100179.00;;;18.70
5571;BMP180;2808;51.240;6.794;2023-07-28T06:23:24;100194.00;;;18.70
5571;BMP180;2808;51.240;6.794;2023-07-28T06:25:51;100190.00;;;18.70
5571;BMP180;2808;51.240;6.794;2023-07-28T06:28:21;100190.00;;;18.80
5571;BMP180;2808;51.240;6.794;2023-07-28T06:30:52;100206.00;;;18.70
5571;BMP180;2808;51.240;6.794;2023-07-28T06:33:22;100213.00;;;18.80
5571;BMP180;2808;51.240;6.794;2023-07-28T06:35:51;100205.00;;;18.80
5571;BMP180;2808;51.240;6.794;2023-07-28T06:38:19;100216.00;;;18.80
5571;BMP180;2808;51.240;6.794;2023-07-28T06:40:47;100218.00;;;18.80
5571;BMP180;2808;51.240;6.794;2023-07-28T06:43:15;100214.00;;;18.80
5571;BMP180;2808;51.240;6.794;2023-07-28T06:45:44;100227.00;;;18.80
5571;BMP180;2808;51.240;6.794;2023-07-28T06:48:11;100219.00;;;18.80
5571;BMP180;2808;51.240;6.794;2023-07-28T06:50:39;100226.00;;;18.80
5571;BMP180;2808;51.240;6.794;2023-07-28T06:53:08;100230.00;;;18.90
5571;BMP180;2808;51.240;6.794;2023-07-28T06:55:35;100227.00;;;18.90
5571;BMP180;2808;51.240;6.794;2023-07-28T06:58:05;100231.00;;;18.90
5571;BMP180;2808;51.240;6.794;2023-07-28T07:00:33;100233.00;;;18.90
5571;BMP180;2808;51.240;6.794;2023-07-28T07:03:00;100229.00;;;18.90
5571;BMP180;2808;51.240;6.794;2023-07-28T07:05:28;100243.00;;;18.80
5571;BMP180;2808;51.240;6.794;2023-07-28T07:07:55;100239.00;;;18.90
5571;BMP180;2808;51.240;6.794;2023-07-28T07:10:24;100241.00;;;18.90
5571;BMP180;2808;51.240;6.794;2023-07-28T07:12:52;100252.00;;;19.00
5571;BMP180;2808;51.240;6.794;2023-07-28T07:15:19;100251.00;;;19.00
5571;BMP180;2808;51.240;6.794;2023-07-28T07:17:47;100250.00;;;19.10
5571;BMP180;2808;51.240;6.794;2023-07-28T07:20:15;100249.00;;;19.10
5571;BMP180;2808;51.240;6.794;2023-07-28T07:22:42;100245.00;;;19.20
5571;BMP180;2808;51.240;6.794;2023-07-28T07:25:10;100246.00;;;19.30
5571;BMP180;2808;51.240;6.794;2023-07-28T07:27:39;100248.00;;;19.40
5571;BMP180;2808;51.240;6.794;2023-07-28T07:30:07;100249.00;;;19.40
5571;BMP180;2808;51.240;6.794;2023-07-28T07:32:35;100246.00;;;19.50
5571;BMP180;2808;51.240;6.794;2023-07-28T07:35:03;100254.00;;;19.50
5571;BMP180;2808;51.240;6.794;2023-07-28T07:37:30;100255.00;;;19.60
5571;BMP180;2808;51.240;6.794;2023-07-28T07:39:58;100252.00;;;19.60
5571;BMP180;2808;51.240;6.794;2023-07-28T07:42:27;100254.00;;;19.70
5571;BMP180;2808;51.240;6.794;2023-07-28T07:44:56;100262.00;;;19.70
5571;BMP180;2808;51.240;6.794;2023-07-28T07:47:24;100262.00;;;19.80
5571;BMP180;2808;51.240;6.794;2023-07-28T07:49:51;100253.00;;;19.80
5571;BMP180;2808;51.240;6.794;2023-07-28T07:52:19;100267.00;;;19.80
5571;BMP180;2808;51.240;6.794;2023-07-28T07:54:46;100267.00;;;19.80
5571;BMP180;2808;51.240;6.794;2023-07-28T07:57:14;100267.00;;;19.80
5571;BMP180;2808;51.240;6.794;2023-07-28T07:59:42;100271.00;;;19.70
5571;BMP180;2808;51.240;6.794;2023-07-28T08:02:12;100272.00;;;19.80
5571;BMP180;2808;51.240;6.794;2023-07-28T08:04:52;100272.00;;;19.80
5571;BMP180;2808;51.240;6.794;2023-07-28T08:07:20;100277.00;;;19.80
5571;BMP180;2808;51.240;6.794;2023-07-28T08:09:48;100271.00;;;19.80
5571;BMP180;2808;51.240;6.794;2023-07-28T08:12:16;100280.00;;;19.70
5571;BMP180;2808;51.240;6.794;2023-07-28T08:14:44;100274.00;;;19.70
5571;BMP180;2808;51.240;6.794;2023-07-28T08:17:14;100276.00;;;19.70
5571;BMP180;2808;51.240;6.794;2023-07-28T08:19:42;100281.00;;;19.80
5571;BMP180;2808;51.240;6.794;2023-07-28T08:22:10;100274.00;;;19.80
5571;BMP180;2808;51.240;6.794;2023-07-28T08:24:38;100286.00;;;19.80
5571;BMP180;2808;51.240;6.794;2023-07-28T08:27:09;100288.00;;;19.80
5571;BMP180;2808;51.240;6.794;2023-07-28T08:29:36;100288.00;;;19.80
5571;BMP180;2808;51.240;6.794;2023-07-28T08:32:32;100292.00;;;19.80
5571;BMP180;2808;51.240;6.794;2023-07-28T08:35:00;100293.00;;;19.80
5571;BMP180;2808;51.240;6.794;2023-07-28T08:37:33;100293.00;;;19.80
5571;BMP180;2808;51.240;6.794;2023-07-28T08:40:04;100288.00;;;19.80
5571;BMP180;2808;51.240;6.794;2023-07-28T08:42:37;100299.00;;;19.80
5571;BMP180;2808;51.240;6.794;2023-07-28T08:45:14;100301.00;;;19.90
5571;BMP180;2808;51.240;6.794;2023-07-28T08:48:18;100305.00;;;20.00
5571;BMP180;2808;51.240;6.794;2023-07-28T08:50:50;100306.00;;;20.00
5571;BMP180;2808;51.240;6.794;2023-07-28T08:53:33;100299.00;;;19.90
5571;BMP180;2808;51.240;6.794;2023-07-28T08:56:02;100307.00;;;20.00
5571;BMP180;2808;51.240;6.794;2023-07-28T08:58:46;100303.00;;;20.10
5571;BMP180;2808;51.240;6.794;2023-07-28T09:01:28;100308.00;;;20.30
5571;BMP180;2808;51.240;6.794;2023-07-28T09:04:15;100302.00;;;20.50
5571;BMP180;2808;51.240;6.794;2023-07-28T09:06:47;100309.00;;;20.60
5571;BMP180;2808;51.240;6.794;2023-07-28T09:09:20;100310.00;;;20.60
5571;BMP180;2808;51.240;6.794;2023-07-28T09:11:50;100307.00;;;20.70
5571;BMP180;2808;51.240;6.794;2023-07-28T09:14:19;100311.00;;;20.80
5571;BMP180;2808;51.240;6.794;2023-07-28T09:16:47;100306.00;;;21.00
5571;BMP180;2808;51.240;6.794;2023-07-28T09:19:23;100308.00;;;21.20
5571;BMP180;2808;51.240;6.794;2023-07-28T09:22:01;100303.00;;;21.40
5571;BMP180;2808;51.240;6.794;2023-07-28T09:24:45;100311.00;;;21.50
5571;BMP180;2808;51.240;6.794;2023-07-28T09:30:55;100300.00;;;21.50
5571;BMP180;2808;51.240;6.794;2023-07-28T09:33:41;100308.00;;;21.60
5571;BMP180;2808;51.240;6.794;2023-07-28T09:36:17;100308.00;;;21.50
5571;BMP180;2808;51.240;6.794;2023-07-28T09:38:49;100310.00;;;21.50
5571;BMP180;2808;51.240;6.794;2023-07-28T09:41:21;100314.00;;;21.50
5571;BMP180;2808;51.240;6.794;2023-07-28T09:43:51;100303.00;;;21.40
5571;BMP180;2808;51.240;6.794;2023-07-28T09:46:29;100309.00;;;21.50
5571;BMP180;2808;51.240;6.794;2023-07-28T09:49:05;100304.00;;;21.60
5571;BMP180;2808;51.240;6.794;2023-07-28T09:51:41;100305.00;;;21.60
5571;BMP180;2808;51.240;6.794;2023-07-28T09:54:20;100314.00;;;21.70
5571;BMP180;2808;51.240;6.794;2023-07-28T09:57:12;100312.00;;;22.00
5571;BMP180;2808;51.240;6.794;2023-07-28T09:59:54;100312.00;;;22.30
5571;BMP180;2808;51.240;6.794;2023-07-28T10:02:32;100303.00;;;22.40
5571;BMP180;2808;51.240;6.794;2023-07-28T10:05:03;100317.00;;;22.50
5571;BMP180;2808;51.240;6.794;2023-07-28T10:07:34;100304.00;;;22.60
5571;BMP180;2808;51.240;6.794;2023-07-28T10:10:03;100306.00;;;22.90
5571;BMP180;2808;51.240;6.794;2023-07-28T10:12:40;100303.00;;;23.20
5571;BMP180;2808;51.240;6.794;2023-07-28T10:15:14;100311.00;;;23.60
5571;BMP180;2808;51.240;6.794;2023-07-28T10:17:45;100307.00;;;23.90
5571;BMP180;2808;51.240;6.794;2023-07-28T10:20:34;100301.00;;;24.10
5571;BMP180;2808;51.240;6.794;2023-07-28T10:23:12;100306.00;;;24.30
5571;BMP180;2808;51.240;6.794;2023-07-28T10:25:41;100304.00;;;24.30
5571;BMP180;2808;51.240;6.794;2023-07-28T10:28:27;100307.00;;;24.20
5571;BMP180;2808;51.240;6.794;2023-07-28T10:30:59;100313.00;;;24.10
5571;BMP180;2808;51.240;6.794;2023-07-28T10:33:28;100305.00;;;23.90
5571;BMP180;2808;51.240;6.794;2023-07-28T10:35:57;100315.00;;;23.80
5571;BMP180;2808;51.240;6.794;2023-07-28T10:38:33;100318.00;;;23.60
5571;BMP180;2808;51.240;6.794;2023-07-28T10:41:10;100326.00;;;23.50
5571;BMP180;2808;51.240;6.794;2023-07-28T10:43:38;100334.00;;;23.30
5571;BMP180;2808;51.240;6.794;2023-07-28T10:46:07;100332.00;;;23.10
5571;BMP180;2808;51.240;6.794;2023-07-28T10:48:42;100333.00;;;23.00
5571;BMP180;2808;51.240;6.794;2023-07-28T10:51:19;100325.00;;;23.00
5571;BMP180;2808;51.240;6.794;2023-07-28T10:53:50;100333.00;;;23.10
5571;BMP180;2808;51.240;6.794;2023-07-28T10:56:18;100332.00;;;23.40
5571;BMP180;2808;51.240;6.794;2023-07-28T10:58:46;100331.00;;;23.70
5571;BMP180;2808;51.240;6.794;2023-07-28T11:01:15;100330.00;;;23.90
5571;BMP180;2808;51.240;6.794;2023-07-28T11:03:42;100324.00;;;24.10
5571;BMP180;2808;51.240;6.794;2023-07-28T11:06:10;100334.00;;;24.40
5571;BMP180;2808;51.240;6.794;2023-07-28T11:08:39;100324.00;;;24.30
5571;BMP180;2808;51.240;6.794;2023-07-28T11:11:09;100323.00;;;24.30
5571;BMP180;2808;51.240;6.794;2023-07-28T11:13:37;100324.00;;;24.20
5571;BMP180;2808;51.240;6.794;2023-07-28T11:16:08;100318.00;;;24.00
5571;BMP180;2808;51.240;6.794;2023-07-28T11:18:38;100324.00;;;24.00
5571;BMP180;2808;51.240;6.794;2023-07-28T11:21:05;100322.00;;;24.30
5571;BMP180;2808;51.240;6.794;2023-07-28T11:23:33;100322.00;;;24.50
5571;BMP180;2808;51.240;6.794;2023-07-28T11:26:00;100309.00;;;24.60
5571;BMP180;2808;51.240;6.794;2023-07-28T11:28:31;100316.00;;;24.60
5571;BMP180;2808;51.240;6.794;2023-07-28T11:30:59;100319.00;;;24.50
5571;BMP180;2808;51.240;6.794;2023-07-28T11:33:28;100318.00;;;24.30
5571;BMP180;2808;51.240;6.794;2023-07-28T11:35:56;100312.00;;;24.10
5571;BMP180;2808;51.240;6.794;2023-07-28T11:38:37;100311.00;;;24.00
5571;BMP180;2808;51.240;6.794;2023-07-28T11:41:06;100314.00;;;23.90
5571;BMP180;2808;51.240;6.794;2023-07-28T11:43:35;100323.00;;;23.60
5571;BMP180;2808;51.240;6.794;2023-07-28T11:46:02;100330.00;;;23.50
5571;BMP180;2808;51.240;6.794;2023-07-28T11:48:30;100337.00;;;23.30
5571;BMP180;2808;51.240;6.794;2023-07-28T11:50:59;100338.00;;;23.10
5571;BMP180;2808;51.240;6.794;2023-07-28T11:53:27;100335.00;;;22.90
5571;BMP180;2808;51.240;6.794;2023-07-28T11:56:01;100333.00;;;22.90
5571;BMP180;2808;51.240;6.794;2023-07-28T11:58:30;100324.00;;;23.10
5571;BMP180;2808;51.240;6.794;2023-07-28T12:01:17;100320.00;;;23.30
5571;BMP180;2808;51.240;6.794;2023-07-28T12:03:45;100331.00;;;23.50
5571;BMP180;2808;51.240;6.794;2023-07-28T12:06:18;100321.00;;;23.80
5571;BMP180;2808;51.240;6.794;2023-07-28T12:08:46;100323.00;;;23.90
5571;BMP180;2808;51.240;6.794;2023-07-28T12:11:14;100314.00;;;23.90
5571;BMP180;2808;51.240;6.794;2023-07-28T12:13:50;100318.00;;;23.90
5571;BMP180;2808;51.240;6.794;2023-07-28T12:16:40;100326.00;;;23.90
5571;BMP180;2808;51.240;6.794;2023-07-28T12:19:13;100326.00;;;23.90
5571;BMP180;2808;51.240;6.794;2023-07-28T12:21:42;100320.00;;;24.10
5571;BMP180;2808;51.240;6.794;2023-07-28T12:24:10;100314.00;;;24.40
5571;BMP180;2808;51.240;6.794;2023-07-28T12:26:38;100301.00;;;24.60
5571;BMP180;2808;51.240;6.794;2023-07-28T12:29:08;100303.00;;;24.70
5571;BMP180;2808;51.240;6.794;2023-07-28T12:31:44;100302.00;;;24.80
5571;BMP180;2808;51.240;6.794;2023-07-28T12:34:13;100308.00;;;24.90
5571;BMP180;2808;51.240;6.794;2023-07-28T12:36:43;100306.00;;;24.90
5571;BMP180;2808;51.240;6.794;2023-07-28T12:39:16;100302.00;;;24.80
5571;BMP180;2808;51.240;6.794;2023-07-28T12:41:44;100308.00;;;24.70
5571;BMP180;2808;51.240;6.794;2023-07-28T12:44:12;100314.00;;;24.50
5571;BMP180;2808;51.240;6.794;2023-07-28T12:46:43;100308.00;;;24.20
5571;BMP180;2808;51.240;6.794;2023-07-28T12:49:11;100309.00;;;24.10
5571;BMP180;2808;51.240;6.794;2023-07-28T12:51:39;100309.00;;;24.10
5571;BMP180;2808;51.240;6.794;2023-07-28T12:54:07;100317.00;;;24.10
5571;BMP180;2808;51.240;6.794;2023-07-28T12:56:34;100318.00;;;24.00
5571;BMP180;2808;51.240;6.794;2023-07-28T12:59:04;100319.00;;;24.10
5571;BMP180;2808;51.240;6.794;2023-07-28T13:05:04;100335.00;;;24.20
5571;BMP180;2808;51.240;6.794;2023-07-28T13:07:36;100336.00;;;24.20
5571;BMP180;2808;51.240;6.794;2023-07-28T13:10:05;100336.00;;;24.20
5571;BMP180;2808;51.240;6.794;2023-07-28T13:12:32;100341.00;;;24.20
5571;BMP180;2808;51.240;6.794;2023-07-28T13:15:02;100340.00;;;24.10
5571;BMP180;2808;51.240;6.794;2023-07-28T13:17:29;100349.00;;;23.80
5571;BMP180;2808;51.240;6.794;2023-07-28T13:19:59;100352.00;;;23.60
5571;BMP180;2808;51.240;6.794;2023-07-28T13:22:28;100355.00;;;23.60
5571;BMP180;2808;51.240;6.794;2023-07-28T13:24:56;100356.00;;;23.60
5571;BMP180;2808;51.240;6.794;2023-07-28T13:27:24;100353.00;;;23.70
5571;BMP180;2808;51.240;6.794;2023-07-28T13:29:51;100354.00;;;23.60
5571;BMP180;2808;51.240;6.794;2023-07-28T13:32:22;100354.00;;;23.50
5571;BMP180;2808;51.240;6.794;2023-07-28T13:34:50;100365.00;;;23.60
5571;BMP180;2808;51.240;6.794;2023-07-28T13:37:20;100358.00;;;23.60
5571;BMP180;2808;51.240;6.794;2023-07-28T13:39:49;100356.00;;;23.60
5571;BMP180;2808;51.240;6.794;2023-07-28T13:42:17;100360.00;;;23.50
5571;BMP180;2808;51.240;6.794;2023-07-28T13:44:45;100349.00;;;23.60
5571;BMP180;2808;51.240;6.794;2023-07-28T13:47:12;100365.00;;;23.60
5571;BMP180;2808;51.240;6.794;2023-07-28T13:49:40;100362.00;;;23.80
5571;BMP180;2808;51.240;6.794;2023-07-28T13:52:08;100358.00;;;23.90
5571;BMP180;2808;51.240;6.794;2023-07-28T13:54:35;100354.00;;;23.90
5571;BMP180;2808;51.240;6.794;2023-07-28T13:57:05;100348.00;;;23.80
5571;BMP180;2808;51.240;6.794;2023-07-28T13:59:32;100346.00;;;23.80
5571;BMP180;2808;51.240;6.794;2023-07-28T14:02:00;100344.00;;;23.90
5571;BMP180;2808;51.240;6.794;2023-07-28T14:04:27;100346.00;;;24.00
5571;BMP180;2808;51.240;6.794;2023-07-28T14:06:55;100345.00;;;24.00
5571;BMP180;2808;51.240;6.794;2023-07-28T14:09:22;100346.00;;;24.00
5571;BMP180;2808;51.240;6.794;2023-07-28T14:11:50;100346.00;;;24.00
5571;BMP180;2808;51.240;6.794;2023-07-28T14:14:34;100334.00;;;24.00
5571;BMP180;2808;51.240;6.794;2023-07-28T14:17:04;100339.00;;;23.90
5571;BMP180;2808;51.240;6.794;2023-07-28T14:19:32;100345.00;;;23.80
5571;BMP180;2808;51.240;6.794;2023-07-28T14:22:03;100344.00;;;23.70
5571;BMP180;2808;51.240;6.794;2023-07-28T14:24:31;100355.00;;;23.40
5571;BMP180;2808;51.240;6.794;2023-07-28T14:27:05;100342.00;;;23.30
5571;BMP180;2808;51.240;6.794;2023-07-28T14:29:34;100339.00;;;23.30
5571;BMP180;2808;51.240;6.794;2023-07-28T14:32:01;100334.00;;;23.30
5571;BMP180;2808;51.240;6.794;2023-07-28T14:34:47;100332.00;;;23.30
5571;BMP180;2808;51.240;6.794;2023-07-28T14:37:31;100335.00;;;23.20
5571;BMP180;2808;51.240;6.794;2023-07-28T14:39:59;100339.00;;;23.20
5571;BMP180;2808;51.240;6.794;2023-07-28T14:42:48;100330.00;;;23.40
5571;BMP180;2808;51.240;6.794;2023-07-28T14:46:03;100334.00;;;23.60